Time;durP1;ratioP1;P1;durP2;ratioP2;P2;SDS_P1;SDS_P2;PMS_P1;PMS_P2;Temp;Humidity;BMP_temperature;BMP_pressure;BME280_temperature;BME280_humidity;BME280_pressure;Samples;Min_cycle;Max_cycle;Signal;HPM_P1;HPM_P2
2021/05/07 00:01:16;;;;;;;4.63;4.00;;;5.10;99.90;;;;;;5080212;28;20059;-81
2021/05/07 00:03:43;;;;;;;5.32;4.00;;;5.10;99.90;;;;;;5080837;28;20486;-82
2021/05/07 00:06:15;;;;;;;4.35;4.00;;;5.10;99.90;;;;;;5097566;28;20599;-81
2021/05/07 00:08:42;;;;;;;3.53;3.33;;;5.00;99.90;;;;;;5095874;28;20483;-82
2021/05/07 00:11:15;;;;;;;3.97;3.67;;;5.00;99.90;;;;;;5077179;28;20044;-82
2021/05/07 00:13:43;;;;;;;4.53;4.18;;;5.00;99.90;;;;;;5099775;28;20056;-83
2021/05/07 00:16:10;;;;;;;4.80;4.32;;;4.90;99.90;;;;;;5082333;28;20040;-83
2021/05/07 00:18:38;;;;;;;4.38;3.97;;;4.90;99.90;;;;;;5083330;28;20487;-83
2021/05/07 00:21:05;;;;;;;5.35;4.75;;;4.90;99.90;;;;;;5082491;28;20044;-81
2021/05/07 00:23:33;;;;;;;4.75;4.45;;;4.90;99.90;;;;;;5075645;28;20060;-81
2021/05/07 00:26:00;;;;;;;4.78;4.38;;;4.90;99.90;;;;;;5095903;28;20051;-82
2021/05/07 00:28:26;;;;;;;4.75;4.35;;;4.90;99.90;;;;;;5098596;28;20086;-82
2021/05/07 00:30:53;;;;;;;4.45;4.05;;;5.00;99.90;;;;;;5079675;28;20123;-81
2021/05/07 00:33:19;;;;;;;4.60;4.30;;;5.00;99.90;;;;;;5098134;28;20214;-82
2021/05/07 00:35:45;;;;;;;5.47;4.38;;;5.00;99.90;;;;;;5079509;28;20068;-82
2021/05/07 00:38:14;;;;;;;4.03;3.72;;;5.00;99.90;;;;;;5079670;28;20078;-81
2021/05/07 00:40:41;;;;;;;4.40;4.00;;;5.00;99.90;;;;;;5079596;28;20056;-81
2021/05/07 00:43:07;;;;;;;3.97;3.65;;;5.10;99.90;;;;;;5079617;28;20056;-82
2021/05/07 00:45:34;;;;;;;4.47;4.18;;;5.00;99.90;;;;;;5097708;28;20076;-82
2021/05/07 00:48:16;;;;;;;4.28;3.97;;;5.10;99.90;;;;;;5079528;28;20056;-82
2021/05/07 00:50:44;;;;;;;4.80;4.22;;;5.10;99.90;;;;;;5097557;28;20091;-82
2021/05/07 00:53:10;;;;;;;4.35;4.05;;;5.10;99.90;;;;;;5079489;28;20044;-82
2021/05/07 00:55:38;;;;;;;4.28;3.88;;;5.10;99.90;;;;;;5079281;28;20123;-81
2021/05/07 00:58:05;;;;;;;3.92;3.72;;;5.10;99.90;;;;;;5097720;28;20507;-81
2021/05/07 01:00:32;;;;;;;4.60;3.95;;;5.10;99.90;;;;;;5079736;28;20056;-82
2021/05/07 01:03:00;;;;;;;5.68;4.70;;;5.10;99.90;;;;;;5097218;28;20091;-82
2021/05/07 01:05:27;;;;;;;5.32;4.32;;;5.10;99.90;;;;;;5078904;28;20507;-81
2021/05/07 01:07:54;;;;;;;4.72;4.32;;;5.20;99.90;;;;;;5079654;28;20097;-81
2021/05/07 01:10:22;;;;;;;4.72;4.43;;;5.20;99.90;;;;;;5097395;28;20048;-81
2021/05/07 01:12:49;;;;;;;4.82;4.18;;;5.20;99.90;;;;;;5078960;28;20079;-82
2021/05/07 01:15:36;;;;;;;4.43;4.13;;;5.10;99.90;;;;;;5082174;28;20055;-81
2021/05/07 01:18:02;;;;;;;5.47;4.97;;;5.10;99.90;;;;;;5097744;28;20473;-81
2021/05/07 01:20:32;;;;;;;4.88;4.43;;;5.00;99.90;;;;;;5080338;28;20052;-81
2021/05/07 01:23:09;;;;;;;4.90;4.50;;;5.00;99.90;;;;;;5083129;28;20067;-82
2021/05/07 01:25:38;;;;;;;6.00;4.82;;;5.00;99.90;;;;;;5084277;28;20469;-81
2021/05/07 01:28:10;;;;;;;5.63;4.85;;;5.10;99.90;;;;;;5082797;28;20052;-81
2021/05/07 01:30:45;;;;;;;5.38;4.70;;;5.00;99.90;;;;;;5102774;28;20407;-82
2021/05/07 01:33:13;;;;;;;4.97;4.57;;;5.10;99.90;;;;;;5103669;28;20389;-81
2021/05/07 01:35:41;;;;;;;6.05;4.60;;;5.10;99.90;;;;;;5103612;28;20472;-82
2021/05/07 01:38:10;;;;;;;4.80;4.40;;;5.10;99.90;;;;;;5103596;28;20074;-82
2021/05/07 01:40:38;;;;;;;4.82;4.40;;;5.20;99.90;;;;;;5082738;28;20092;-81
2021/05/07 01:43:06;;;;;;;5.40;4.90;;;5.20;99.90;;;;;;5082989;28;20062;-81
2021/05/07 01:45:34;;;;;;;4.95;4.55;;;5.20;99.90;;;;;;5082790;28;20070;-81
2021/05/07 01:48:01;;;;;;;4.97;4.18;;;5.20;99.90;;;;;;5082493;28;20105;-81
2021/05/07 01:50:30;;;;;;;6.07;4.57;;;5.20;99.90;;;;;;5082011;28;20475;-81
2021/05/07 01:52:57;;;;;;;4.70;4.15;;;5.20;99.90;;;;;;5081261;28;20064;-81
2021/05/07 01:55:26;;;;;;;5.43;4.82;;;5.30;99.90;;;;;;5081352;28;20071;-81
2021/05/07 01:57:53;;;;;;;4.30;3.92;;;5.20;99.90;;;;;;5099197;28;20086;-81
2021/05/07 02:00:22;;;;;;;4.85;4.18;;;5.20;99.90;;;;;;5081463;28;20097;-81
2021/05/07 02:02:49;;;;;;;5.18;4.68;;;5.20;99.90;;;;;;5079532;28;20052;-80
2021/05/07 02:05:18;;;;;;;4.30;4.00;;;5.20;99.90;;;;;;5079414;28;20083;-80
2021/05/07 02:07:49;;;;;;;5.05;4.57;;;5.30;99.90;;;;;;5079111;28;20131;-80
2021/05/07 02:10:22;;;;;;;6.90;4.50;;;5.10;99.90;;;;;;5078686;28;20086;-80
2021/05/07 02:12:53;;;;;;;5.15;4.65;;;5.20;99.90;;;;;;5080509;28;20069;-81
2021/05/07 02:15:21;;;;;;;4.63;4.32;;;5.30;99.90;;;;;;5082074;28;20048;-81
2021/05/07 02:17:49;;;;;;;4.15;3.85;;;5.30;99.90;;;;;;5082119;28;20117;-81
2021/05/07 02:20:16;;;;;;;4.60;4.20;;;5.30;99.90;;;;;;5081677;28;20478;-81
2021/05/07 02:22:45;;;;;;;5.35;4.85;;;5.40;99.90;;;;;;5081944;28;20457;-81
2021/05/07 02:25:13;;;;;;;4.30;4.00;;;5.30;99.90;;;;;;5081832;28;20090;-81
2021/05/07 02:27:39;;;;;;;4.20;3.90;;;5.30;99.90;;;;;;5100582;28;20491;-81
2021/05/07 02:30:06;;;;;;;5.05;4.57;;;5.30;99.90;;;;;;5082065;28;20102;-81
2021/05/07 02:32:33;;;;;;;7.45;4.90;;;5.20;99.90;;;;;;5081533;28;20426;-81
2021/05/07 02:34:59;;;;;;;4.85;4.43;;;5.20;99.90;;;;;;5082173;28;20044;-81
2021/05/07 02:37:26;;;;;;;6.60;5.40;;;5.20;99.90;;;;;;5100073;28;20067;-81
2021/05/07 02:39:52;;;;;;;6.00;5.10;;;5.10;99.90;;;;;;5082207;28;20060;-82
2021/05/07 02:42:20;;;;;;;6.65;5.32;;;5.10;99.90;;;;;;5082552;28;20476;-81
2021/05/07 02:44:47;;;;;;;7.05;5.78;;;5.20;99.90;;;;;;5082981;28;20452;-81
2021/05/07 02:47:14;;;;;;;6.75;5.93;;;5.20;99.90;;;;;;5101133;28;20076;-82
2021/05/07 02:49:40;;;;;;;6.32;5.70;;;5.20;99.90;;;;;;5101114;28;20051;-81
2021/05/07 02:52:06;;;;;;;6.57;5.57;;;5.30;99.90;;;;;;5083044;28;20070;-82
2021/05/07 02:54:33;;;;;;;6.95;5.45;;;5.30;99.90;;;;;;5083942;28;20052;-82
2021/05/07 02:57:00;;;;;;;7.25;5.10;;;5.40;99.90;;;;;;5086820;28;20071;-81
2021/05/07 02:59:27;;;;;;;6.97;5.53;;;5.40;99.90;;;;;;5083862;28;20454;-81
2021/05/07 03:01:54;;;;;;;6.55;5.95;;;5.50;99.90;;;;;;5084237;28;20082;-81
2021/05/07 03:04:20;;;;;;;6.25;5.75;;;5.50;99.90;;;;;;5083188;28;20048;-81
2021/05/07 03:06:48;;;;;;;6.28;5.60;;;5.40;99.90;;;;;;5080892;28;20052;-81
2021/05/07 03:09:14;;;;;;;6.82;6.10;;;5.40;99.90;;;;;;5080613;28;20124;-80
2021/05/07 03:11:41;;;;;;;8.02;6.90;;;5.30;99.90;;;;;;5080809;28;20093;-80
2021/05/07 03:14:07;;;;;;;6.32;5.82;;;5.30;99.90;;;;;;5099222;28;20066;-81
2021/05/07 03:16:34;;;;;;;6.13;5.63;;;5.40;99.90;;;;;;5098092;28;20054;-81
2021/05/07 03:19:01;;;;;;;6.55;5.90;;;5.40;99.90;;;;;;5080482;28;20131;-80
2021/05/07 03:21:28;;;;;;;5.90;5.40;;;5.40;99.90;;;;;;5080629;28;20088;-82
2021/05/07 03:23:54;;;;;;;8.57;5.53;;;5.40;99.90;;;;;;5098798;28;20515;-81
2021/05/07 03:26:20;;;;;;;7.07;6.32;;;5.50;99.90;;;;;;5080394;28;20104;-81
2021/05/07 03:28:49;;;;;;;6.20;5.63;;;5.40;99.90;;;;;;5080706;28;20109;-81
2021/05/07 03:31:16;;;;;;;6.82;6.05;;;5.30;99.90;;;;;;5079190;28;20048;-81
2021/05/07 03:33:44;;;;;;;6.97;6.28;;;5.30;99.90;;;;;;5098445;28;20518;-81
2021/05/07 03:36:11;;;;;;;5.55;5.10;;;5.30;99.90;;;;;;5079469;28;20044;-81
2021/05/07 03:38:38;;;;;;;6.03;5.45;;;5.40;99.90;;;;;;5096473;28;20082;-81
2021/05/07 03:41:04;;;;;;;7.18;6.25;;;5.40;99.90;;;;;;5077921;28;20393;-81
2021/05/07 03:43:30;;;;;;;6.78;5.72;;;5.40;99.90;;;;;;5077086;28;20048;-81
2021/05/07 03:45:56;;;;;;;7.30;6.57;;;5.40;99.90;;;;;;5077523;28;20071;-80
2021/05/07 03:48:24;;;;;;;10.25;7.28;;;5.50;99.90;;;;;;5095620;28;20068;-81
2021/05/07 03:50:54;;;;;;;7.03;6.32;;;5.50;99.90;;;;;;5095578;28;20517;-81
2021/05/07 03:53:22;;;;;;;7.18;6.47;;;5.40;99.90;;;;;;5077004;28;20093;-82
2021/05/07 03:55:49;;;;;;;8.02;7.05;;;5.40;99.90;;;;;;5077299;28;20524;-81
2021/05/07 03:58:16;;;;;;;13.73;6.80;;;5.40;99.90;;;;;;5076767;28;20044;-80
2021/05/07 04:00:43;;;;;;;9.88;7.38;;;5.40;99.90;;;;;;5096814;28;20105;-81
2021/05/07 04:03:10;;;;;;;9.30;7.88;;;5.50;99.90;;;;;;5081143;28;20073;-82
2021/05/07 04:05:36;;;;;;;12.40;8.45;;;5.40;99.90;;;;;;5099493;28;20048;-82
2021/05/07 04:08:13;;;;;;;9.18;8.13;;;5.40;99.90;;;;;;5082094;28;20052;-81
2021/05/07 04:10:44;;;;;;;9.25;8.35;;;5.50;99.90;;;;;;5099630;28;20087;-82
2021/05/07 04:15:56;;;;;;;12.02;9.80;;;5.60;99.90;;;;;;5099518;28;20044;-81
2021/05/07 04:18:22;;;;;;;11.02;9.88;;;5.50;99.90;;;;;;5080213;28;20602;-82
2021/05/07 04:20:49;;;;;;;10.55;9.15;;;5.60;99.90;;;;;;5099791;28;20056;-81
2021/05/07 04:23:16;;;;;;;10.70;9.45;;;5.60;99.90;;;;;;5099122;28;20048;-80
2021/05/07 04:25:42;;;;;;;13.38;10.60;;;5.70;99.90;;;;;;5080664;28;20074;-81
2021/05/07 04:28:08;;;;;;;10.25;9.23;;;5.70;99.90;;;;;;5079488;28;20486;-81
2021/05/07 04:30:35;;;;;;;11.18;9.98;;;5.80;99.90;;;;;;5079034;28;20127;-81
2021/05/07 04:33:01;;;;;;;10.07;9.07;;;5.70;99.90;;;;;;5079080;28;20161;-81
2021/05/07 04:35:27;;;;;;;13.32;10.85;;;5.80;99.90;;;;;;5097659;28;20468;-82
2021/05/07 04:37:53;;;;;;;45.53;31.38;;;5.80;99.90;;;;;;5079307;28;20482;-81
2021/05/07 04:40:20;;;;;;;11.25;10.05;;;5.70;99.90;;;;;;5079289;28;20090;-82
2021/05/07 04:42:46;;;;;;;10.88;8.80;;;5.80;99.90;;;;;;5079329;28;20086;-81
2021/05/07 04:45:13;;;;;;;8.95;8.05;;;5.80;99.90;;;;;;5078999;28;20083;-81
2021/05/07 04:47:39;;;;;;;9.57;8.63;;;5.70;99.90;;;;;;5079261;28;20146;-81
2021/05/07 04:50:07;;;;;;;9.40;8.50;;;5.70;99.90;;;;;;5078884;28;20047;-82
2021/05/07 04:52:34;;;;;;;8.93;8.13;;;5.80;99.90;;;;;;5079009;28;20586;-81
2021/05/07 04:55:00;;;;;;;13.68;9.30;;;5.90;99.90;;;;;;5079648;28;20067;-80
2021/05/07 04:57:30;;;;;;;12.05;10.80;;;6.00;99.90;;;;;;5104070;28;20048;-81
2021/05/07 04:59:56;;;;;;;8.63;7.60;;;6.00;99.90;;;;;;5104762;28;20044;-82
2021/05/07 05:02:23;;;;;;;6.30;5.80;;;6.20;99.90;;;;;;5092703;28;20048;-79
2021/05/07 05:04:50;;;;;;;4.88;4.47;;;6.50;99.90;;;;;;5115532;28;20044;-79
2021/05/07 05:07:17;;;;;;;5.72;5.22;;;6.70;99.90;;;;;;5096286;28;20094;-79
2021/05/07 05:09:44;;;;;;;9.65;7.78;;;6.70;99.90;;;;;;5096385;28;20055;-79
2021/05/07 05:12:10;;;;;;;9.60;8.70;;;6.80;99.90;;;;;;5115663;28;20051;-79
2021/05/07 05:14:36;;;;;;;8.05;7.35;;;6.80;99.90;;;;;;5097101;28;20047;-79
2021/05/07 05:17:02;;;;;;;7.88;7.18;;;6.90;99.90;;;;;;5096819;28;20078;-79
2021/05/07 05:19:29;;;;;;;9.35;8.55;;;6.70;99.90;;;;;;5098656;28;20055;-79
2021/05/07 05:21:55;;;;;;;7.68;7.07;;;6.80;99.90;;;;;;5115351;28;20044;-79
2021/05/07 05:24:21;;;;;;;8.55;7.75;;;6.90;99.90;;;;;;5098710;28;20055;-79
2021/05/07 05:26:48;;;;;;;4.72;4.43;;;6.80;99.90;;;;;;5117492;28;20032;-79
2021/05/07 05:29:15;;;;;;;4.85;4.45;;;6.80;99.90;;;;;;5099817;28;20056;-79
2021/05/07 05:31:41;;;;;;;4.82;4.43;;;6.80;99.90;;;;;;5105498;28;20028;-79
2021/05/07 05:34:07;;;;;;;4.78;4.38;;;6.80;99.90;;;;;;5097733;28;20044;-79
2021/05/07 05:36:34;;;;;;;7.07;6.47;;;6.80;99.90;;;;;;5098139;28;20056;-79
2021/05/07 05:39:04;;;;;;;10.35;9.55;;;6.80;99.90;;;;;;5095645;28;20073;-80
2021/05/07 05:41:31;;;;;;;5.10;4.65;;;6.80;99.90;;;;;;5094664;28;20141;-80
2021/05/07 05:43:57;;;;;;;5.60;5.15;;;6.70;99.90;;;;;;5096276;28;20126;-80
2021/05/07 05:46:23;;;;;;;6.25;5.75;;;6.80;99.90;;;;;;5114797;28;20048;-80
2021/05/07 05:48:49;;;;;;;6.88;5.30;;;6.70;99.90;;;;;;5096415;28;20087;-80
2021/05/07 05:51:16;;;;;;;6.75;6.25;;;6.70;99.90;;;;;;5096800;28;20052;-80
2021/05/07 05:53:42;;;;;;;5.90;5.40;;;6.60;99.90;;;;;;5095757;28;20044;-80
2021/05/07 05:56:08;;;;;;;7.40;6.55;;;6.60;99.90;;;;;;5095124;28;20048;-79
2021/05/07 05:58:34;;;;;;;7.80;7.07;;;6.60;99.90;;;;;;5095189;28;20047;-79
2021/05/07 06:01:01;;;;;;;8.82;7.03;;;6.60;99.90;;;;;;5095277;28;20048;-79
2021/05/07 06:03:27;;;;;;;10.35;7.28;;;6.50;99.90;;;;;;5094300;28;20055;-80
2021/05/07 06:05:54;;;;;;;5.38;4.80;;;6.60;99.90;;;;;;5114495;28;20052;-81
2021/05/07 06:08:20;;;;;;;3.95;3.70;;;6.40;99.90;;;;;;5093600;28;20082;-79
2021/05/07 06:10:47;;;;;;;3.90;3.60;;;6.20;99.90;;;;;;5092885;28;20055;-79
2021/05/07 06:13:13;;;;;;;3.80;3.50;;;6.10;99.90;;;;;;5091770;28;20131;-80
2021/05/07 06:15:41;;;;;;;4.38;4.07;;;6.00;99.90;;;;;;5110970;28;20048;-79
2021/05/07 06:18:07;;;;;;;4.30;3.90;;;6.00;99.90;;;;;;5093654;28;20048;-79
2021/05/07 06:20:33;;;;;;;4.57;4.18;;;5.90;99.90;;;;;;5092670;28;20052;-79
2021/05/07 06:23:00;;;;;;;3.90;3.60;;;5.90;99.90;;;;;;5093013;28;20055;-79
2021/05/07 06:25:27;;;;;;;4.90;4.30;;;5.90;99.90;;;;;;5092973;28;20054;-79
2021/05/07 06:27:53;;;;;;;8.57;4.03;;;5.90;99.90;;;;;;5092932;28;20107;-79
2021/05/07 06:30:20;;;;;;;3.67;3.35;;;5.90;99.90;;;;;;5093501;28;20051;-81
2021/05/07 06:32:46;;;;;;;3.60;3.40;;;6.00;99.90;;;;;;5093634;28;20076;-80
2021/05/07 06:35:13;;;;;;;4.30;4.00;;;6.10;99.90;;;;;;5111321;28;20074;-79
2021/05/07 06:37:42;;;;;;;4.68;4.28;;;6.20;99.90;;;;;;5111874;28;20069;-79
2021/05/07 06:40:09;;;;;;;4.70;4.30;;;6.30;99.90;;;;;;5093055;28;20435;-79
2021/05/07 06:42:38;;;;;;;3.63;3.33;;;6.40;99.90;;;;;;5111461;28;20048;-80
2021/05/07 06:45:07;;;;;;;4.03;3.72;;;6.30;99.90;;;;;;5111831;28;20055;-80
2021/05/07 06:47:33;;;;;;;4.20;3.90;;;6.20;99.90;;;;;;5115436;28;20043;-81
2021/05/07 06:50:00;;;;;;;3.78;3.58;;;6.30;99.90;;;;;;5116050;28;20044;-79
2021/05/07 06:52:26;;;;;;;5.53;5.03;;;6.20;99.90;;;;;;5093362;28;20055;-79
2021/05/07 06:54:53;;;;;;;5.22;4.70;;;6.20;99.90;;;;;;5093812;28;20507;-80
2021/05/07 06:57:19;;;;;;;5.45;5.03;;;6.20;99.90;;;;;;5111358;28;20044;-80
2021/05/07 06:59:47;;;;;;;5.13;4.72;;;6.20;99.90;;;;;;5093054;28;20066;-79
2021/05/07 07:02:15;;;;;;;4.55;4.25;;;6.40;99.90;;;;;;5099693;28;20391;-80
2021/05/07 07:04:45;;;;;;;4.63;4.25;;;6.50;99.90;;;;;;5111287;28;20150;-80
2021/05/07 07:07:13;;;;;;;6.97;4.70;;;6.60;99.90;;;;;;5111170;28;20055;-80
2021/05/07 07:09:39;;;;;;;5.28;4.78;;;6.70;99.90;;;;;;5112203;28;20495;-80
2021/05/07 07:12:06;;;;;;;5.38;4.97;;;6.70;99.90;;;;;;5110443;28;20068;-80
2021/05/07 07:14:37;;;;;;;5.25;4.82;;;6.50;99.90;;;;;;5102918;28;20024;-80
2021/05/07 07:17:04;;;;;;;5.40;4.90;;;6.30;99.90;;;;;;5110134;28;20052;-80
2021/05/07 07:19:31;;;;;;;5.38;4.88;;;6.10;99.90;;;;;;5099884;28;20139;-80
2021/05/07 07:22:02;;;;;;;5.43;5.00;;;6.30;99.90;;;;;;5108984;28;20074;-79
2021/05/07 07:24:29;;;;;;;6.13;5.45;;;6.40;99.90;;;;;;5108464;28;20459;-81
2021/05/07 07:26:55;;;;;;;4.97;4.57;;;6.50;99.90;;;;;;5109050;28;20109;-80
2021/05/07 07:29:22;;;;;;;6.00;4.88;;;6.40;99.90;;;;;;5108953;28;20063;-80
2021/05/07 07:31:48;;;;;;;5.43;4.90;;;6.50;99.90;;;;;;5108111;28;20044;-80
2021/05/07 07:34:15;;;;;;;4.95;4.47;;;6.90;99.90;;;;;;5108459;28;20059;-80
2021/05/07 07:36:41;;;;;;;4.07;3.78;;;7.80;99.90;;;;;;5109713;28;20134;-81
2021/05/07 07:39:08;;;;;;;4.07;3.78;;;8.60;99.90;;;;;;5106231;28;20487;-80
2021/05/07 07:41:34;;;;;;;3.45;3.25;;;9.80;99.90;;;;;;5102797;28;20060;-82
2021/05/07 07:44:00;;;;;;;16.33;4.78;;;11.70;99.90;;;;;;5106283;28;20052;-81
2021/05/07 07:46:28;;;;;;;18.50;5.15;;;13.30;99.90;;;;;;5105909;28;20083;-81
2021/05/07 07:48:54;;;;;;;3.50;2.95;;;14.70;99.90;;;;;;5106422;28;20415;-82
2021/05/07 07:51:21;;;;;;;3.28;3.08;;;14.80;99.90;;;;;;5105690;28;20048;-81
2021/05/07 07:53:47;;;;;;;3.63;2.53;;;15.50;99.90;;;;;;5108241;28;20052;-82
2021/05/07 07:56:13;;;;;;;2.47;2.38;;;17.10;97.40;;;;;;5109063;28;20051;-82
2021/05/07 07:58:39;;;;;;;2.80;2.58;;;17.70;91.20;;;;;;5108313;28;20044;-81
2021/05/07 08:01:06;;;;;;;2.45;2.30;;;16.10;89.40;;;;;;5108859;28;20491;-83
2021/05/07 08:03:32;;;;;;;2.83;2.63;;;14.90;95.40;;;;;;5109714;28;20063;-83
2021/05/07 08:05:58;;;;;;;3.67;2.83;;;13.90;99.90;;;;;;5110987;28;20105;-83
2021/05/07 08:08:25;;;;;;;2.58;2.38;;;13.30;99.90;;;;;;5105790;28;20457;-82
2021/05/07 08:10:51;;;;;;;2.53;2.42;;;12.00;99.90;;;;;;5102645;28;20058;-83
2021/05/07 08:13:18;;;;;;;2.20;2.10;;;12.90;99.90;;;;;;5103678;28;20044;-82
2021/05/07 08:15:45;;;;;;;1.83;1.73;;;14.80;99.90;;;;;;5102979;28;20054;-84
2021/05/07 08:18:12;;;;;;;1.73;1.63;;;16.50;92.50;;;;;;5105695;28;20040;-83
2021/05/07 08:20:38;;;;;;;2.60;1.80;;;16.30;90.20;;;;;;5103800;28;20044;-83
2021/05/07 08:23:08;;;;;;;1.98;1.70;;;16.70;84.90;;;;;;5103511;28;20047;-84
2021/05/07 08:25:35;;;;;;;2.47;1.67;;;17.20;78.60;;;;;;5103295;28;20071;-83
2021/05/07 08:28:02;;;;;;;7.40;2.20;;;15.30;78.40;;;;;;5104328;28;20645;-83
2021/05/07 08:30:32;;;;;;;2.83;2.00;;;14.20;85.30;;;;;;5104320;28;20048;-84
2021/05/07 08:32:59;;;;;;;2.88;2.05;;;12.50;91.40;;;;;;5103328;28;20044;-83
2021/05/07 08:35:26;;;;;;;2.58;2.20;;;11.40;99.90;;;;;;5102232;28;20043;-84
2021/05/07 08:37:53;;;;;;;2.88;2.15;;;10.50;99.90;;;;;;5102791;28;20101;-83
2021/05/07 08:40:19;;;;;;;2.58;2.40;;;9.80;99.90;;;;;;5102884;28;20074;-84
2021/05/07 08:42:46;;;;;;;8.15;3.00;;;9.50;99.90;;;;;;5102426;28;20044;-84
2021/05/07 08:45:13;;;;;;;4.00;2.50;;;9.30;99.90;;;;;;5103398;28;20466;-84
2021/05/07 08:47:45;;;;;;;2.67;2.47;;;9.10;99.90;;;;;;5102013;28;20079;-84
2021/05/07 08:50:12;;;;;;;6.30;2.92;;;9.10;99.90;;;;;;5103391;28;20393;-84
2021/05/07 08:52:39;;;;;;;2.28;2.08;;;10.20;99.90;;;;;;5103151;28;20117;-85
2021/05/07 08:55:07;;;;;;;3.05;2.35;;;10.80;99.90;;;;;;5105517;28;20081;-84
2021/05/07 08:57:34;;;;;;;4.00;2.40;;;10.70;99.90;;;;;;5105140;28;20055;-85
2021/05/07 09:00:01;;;;;;;3.03;2.17;;;10.40;99.90;;;;;;5105057;28;20103;-84
2021/05/07 09:02:29;;;;;;;2.75;2.30;;;9.90;99.90;;;;;;5104208;28;20083;-85
2021/05/07 09:04:59;;;;;;;4.93;2.47;;;9.50;99.90;;;;;;5105583;28;20052;-84
2021/05/07 09:07:29;;;;;;;4.07;2.15;;;9.20;99.90;;;;;;5104892;28;20070;-85
2021/05/07 09:09:58;;;;;;;4.43;3.30;;;8.90;99.90;;;;;;5111060;28;20070;-85
2021/05/07 09:12:36;;;;;;;6.07;4.82;;;8.70;99.90;;;;;;5104907;28;20495;-85
2021/05/07 09:15:07;;;;;;;4.30;3.10;;;8.60;99.90;;;;;;5107714;28;20048;-83
2021/05/07 09:17:38;;;;;;;3.83;3.10;;;8.40;99.90;;;;;;5096039;28;20040;-84
2021/05/07 09:24:24;;;;;;;4.35;2.88;;;8.40;99.90;;;;;;5102167;28;20498;-85
2021/05/07 09:26:55;;;;;;;2.92;2.60;;;9.00;99.90;;;;;;5015871;28;20519;-84
2021/05/07 09:30:01;;;;;;;2.95;1.92;;;9.90;99.90;;;;;;5006242;28;20048;-85
2021/05/07 09:41:04;;;;;;;3.55;2.58;;;10.50;99.90;;;;;;5034148;28;20080;-84
2021/05/07 09:43:50;;;;;;;5.82;2.55;;;10.20;99.90;;;;;;5041147;28;20057;-84
2021/05/07 09:46:51;;;;;;;6.88;2.90;;;9.70;99.90;;;;;;5051524;28;20043;-85
2021/05/07 09:49:58;;;;;;;4.55;3.22;;;9.50;99.90;;;;;;5099189;28;20154;-84
2021/05/07 09:52:36;;;;;;;5.40;3.30;;;9.40;99.90;;;;;;5101011;28;20048;-84
2021/05/07 09:55:18;;;;;;;4.75;3.20;;;9.90;99.90;;;;;;5100801;28;20052;-85
2021/05/07 09:57:50;;;;;;;3.60;2.88;;;10.60;99.90;;;;;;5101130;28;20112;-86
2021/05/07 10:00:17;;;;;;;3.58;2.40;;;11.10;99.90;;;;;;5101255;28;20055;-84
2021/05/07 10:03:21;;;;;;;6.07;1.90;;;11.70;99.90;;;;;;5102596;28;20051;-84
2021/05/07 10:05:56;;;;;;;1.90;1.80;;;13.70;97.50;;;;;;5101626;28;20441;-84
2021/05/07 10:08:29;;;;;;;2.40;2.20;;;15.30;90.30;;;;;;5099780;28;20517;-85
2021/05/07 10:11:03;;;;;;;1.95;1.85;;;16.00;77.80;;;;;;5101275;28;20051;-84
2021/05/07 10:13:33;;;;;;;3.25;2.13;;;15.50;80.90;;;;;;5101234;28;20044;-84
2021/05/07 10:16:00;;;;;;;3.63;2.78;;;15.00;80.00;;;;;;5100666;28;20090;-85
2021/05/07 10:18:41;;;;;;;3.15;2.33;;;14.20;85.60;;;;;;5099935;28;20410;-83
2021/05/07 10:21:10;;;;;;;3.92;2.80;;;13.10;81.90;;;;;;5100430;28;20055;-83
2021/05/07 10:24:04;;;;;;;4.88;2.30;;;12.00;86.10;;;;;;5099511;28;20051;-85
2021/05/07 10:26:50;;;;;;;2.40;2.20;;;11.40;96.00;;;;;;5091835;28;20574;-83
2021/05/07 10:29:26;;;;;;;3.00;2.72;;;13.30;95.10;;;;;;5099199;28;20078;-84
2021/05/07 10:31:57;;;;;;;2.90;2.40;;;13.50;85.90;;;;;;5101231;28;20059;-85
2021/05/07 10:34:27;;;;;;;2.42;2.33;;;12.80;90.00;;;;;;5099449;28;20054;-84
2021/05/07 10:37:11;;;;;;;5.50;2.53;;;13.10;90.80;;;;;;5100867;28;20048;-84
2021/05/07 10:39:56;;;;;;;5.03;2.30;;;13.60;86.80;;;;;;5103878;28;20488;-85
2021/05/07 10:42:23;;;;;;;10.07;2.38;;;15.20;85.20;;;;;;5086556;28;20062;-85
2021/05/07 10:44:53;;;;;;;3.58;1.80;;;15.50;76.20;;;;;;5082531;28;20058;-84
2021/05/07 10:47:30;;;;;;;2.05;1.95;;;15.30;71.20;;;;;;5100304;28;20487;-85
2021/05/07 10:49:57;;;;;;;2.55;2.00;;;14.80;71.00;;;;;;5083711;28;20056;-84
2021/05/07 10:52:43;;;;;;;3.15;1.80;;;13.40;71.10;;;;;;5083781;28;20480;-86
2021/05/07 10:55:10;;;;;;;2.25;2.15;;;12.60;80.80;;;;;;5083427;28;20090;-85
2021/05/07 10:57:39;;;;;;;2.00;1.80;;;12.20;86.30;;;;;;5083988;28;20085;-85
2021/05/07 11:00:16;;;;;;;2.08;1.60;;;12.50;83.30;;;;;;5083447;28;20478;-85
2021/05/07 11:02:48;;;;;;;6.38;1.98;;;13.20;77.90;;;;;;5098153;28;20047;-84
2021/05/07 11:05:38;;;;;;;1.70;1.60;;;13.00;75.40;;;;;;5083391;28;20055;-84
2021/05/07 11:08:05;;;;;;;6.40;1.58;;;12.60;73.80;;;;;;5081551;28;20499;-84
2021/05/07 11:10:32;;;;;;;4.45;1.50;;;12.00;73.60;;;;;;5079418;28;20451;-84
2021/05/07 11:12:58;;;;;;;4.32;1.63;;;11.50;72.70;;;;;;5078184;28;20055;-84
2021/05/07 11:16:11;;;;;;;2.00;1.38;;;11.30;81.10;;;;;;5077851;28;20066;-83
2021/05/07 11:18:55;;;;;;;1.98;1.33;;;11.40;74.70;;;;;;5081128;28;20505;-85
2021/05/07 11:21:21;;;;;;;1.10;1.05;;;13.10;78.20;;;;;;5082086;28;20436;-86
2021/05/07 11:23:58;;;;;;;3.85;1.67;;;14.30;68.10;;;;;;5084255;28;20052;-84
2021/05/07 11:26:38;;;;;;;1.90;1.60;;;13.80;65.40;;;;;;5082782;28;20086;-85
2021/05/07 11:29:04;;;;;;;11.70;5.10;;;12.70;73.10;;;;;;5081022;28;20411;-84
2021/05/07 11:31:31;;;;;;;3.10;2.70;;;11.90;76.70;;;;;;5080397;28;20098;-84
2021/05/07 11:34:01;;;;;;;6.15;5.45;;;11.30;84.10;;;;;;5080469;28;20410;-84
2021/05/07 11:36:27;;;;;;;3.38;2.70;;;10.90;95.10;;;;;;5081901;28;20461;-84
2021/05/07 11:39:34;;;;;;;3.05;2.30;;;10.70;96.10;;;;;;5111660;28;20048;-83
2021/05/07 11:42:00;;;;;;;2.83;2.22;;;10.40;91.30;;;;;;5097037;28;20059;-83
2021/05/07 11:44:47;;;;;;;3.15;2.05;;;10.20;94.70;;;;;;5097897;28;20121;-84
2021/05/07 11:47:14;;;;;;;3.90;2.33;;;10.10;99.90;;;;;;5097403;28;20659;-84
2021/05/07 11:49:48;;;;;;;2.08;1.98;;;10.60;99.90;;;;;;5098083;28;20048;-83
2021/05/07 11:52:14;;;;;;;7.25;2.28;;;11.80;98.10;;;;;;5098036;28;20044;-85
2021/05/07 11:54:44;;;;;;;3.20;1.80;;;13.00;96.10;;;;;;5091918;28;20047;-85
2021/05/07 11:57:12;;;;;;;3.78;1.83;;;13.80;80.00;;;;;;5100613;28;20101;-84
2021/05/07 11:59:59;;;;;;;6.80;2.47;;;14.00;77.30;;;;;;5100446;28;20044;-85
2021/05/07 12:02:27;;;;;;;2.28;1.30;;;14.10;75.40;;;;;;5097817;28;20070;-83
2021/05/07 12:04:59;;;;;;;7.55;1.58;;;13.60;72.20;;;;;;5095388;28;20050;-83
2021/05/07 12:07:36;;;;;;;1.67;1.52;;;13.10;73.70;;;;;;5095591;28;20056;-83
2021/05/07 12:10:03;;;;;;;1.30;1.20;;;12.80;74.60;;;;;;5095677;28;20052;-83
2021/05/07 12:12:48;;;;;;;3.95;2.00;;;12.60;75.50;;;;;;5095127;28;20093;-83
2021/05/07 12:15:16;;;;;;;5.22;4.75;;;12.60;73.50;;;;;;5096720;28;20054;-84
2021/05/07 12:17:52;;;;;;;3.03;2.75;;;12.40;73.20;;;;;;5095744;28;20453;-84
2021/05/07 12:20:27;;;;;;;6.05;2.50;;;12.00;76.20;;;;;;5095077;28;20454;-83
2021/05/07 12:22:56;;;;;;;4.03;2.40;;;11.60;80.70;;;;;;5095632;28;20052;-84
2021/05/07 12:25:25;;;;;;;8.48;7.57;;;11.10;84.80;;;;;;5094936;28;20048;-83
2021/05/07 12:27:53;;;;;;;5.57;3.15;;;10.60;91.90;;;;;;5094666;28;20076;-83
2021/05/07 12:30:24;;;;;;;4.78;2.45;;;10.30;96.60;;;;;;5095295;28;20062;-83
2021/05/07 12:32:58;;;;;;;6.93;3.30;;;10.30;99.90;;;;;;5096436;28;20052;-83
2021/05/07 12:35:56;;;;;;;8.25;4.38;;;9.80;99.90;;;;;;5094120;28;20044;-84
2021/05/07 12:38:26;;;;;;;4.50;4.10;;;9.40;99.90;;;;;;5093355;28;20044;-84
2021/05/07 12:40:58;;;;;;;3.20;3.00;;;9.80;99.90;;;;;;5093164;28;20108;-84
2021/05/07 12:43:56;;;;;;;3.10;2.90;;;10.40;99.90;;;;;;5093173;28;20533;-83
2021/05/07 12:46:23;;;;;;;20.05;6.85;;;10.50;99.90;;;;;;5094332;28;20048;-83
2021/05/07 12:49:29;;;;;;;3.33;3.00;;;10.50;99.90;;;;;;5093463;28;20067;-83
2021/05/07 12:52:18;;;;;;;2.90;2.67;;;10.60;99.90;;;;;;5092761;28;20043;-84
2021/05/07 12:54:45;;;;;;;3.65;3.10;;;10.60;99.90;;;;;;5093020;28;20087;-84
2021/05/07 12:57:11;;;;;;;2.83;2.63;;;10.60;99.90;;;;;;5092878;28;20218;-84
2021/05/07 12:59:37;;;;;;;4.03;2.70;;;10.60;99.90;;;;;;5092719;28;20044;-84
2021/05/07 13:02:30;;;;;;;3.30;3.00;;;10.80;99.90;;;;;;5093797;28;20048;-84
2021/05/07 13:04:57;;;;;;;3.15;2.85;;;11.00;99.90;;;;;;5093074;28;20495;-84
2021/05/07 13:07:24;;;;;;;2.80;2.60;;;11.30;99.90;;;;;;5093548;28;20155;-84
2021/05/07 13:10:16;;;;;;;3.50;3.17;;;11.40;99.90;;;;;;5094240;28;20143;-83
2021/05/07 13:12:42;;;;;;;3.38;2.65;;;11.00;99.90;;;;;;5093912;28;20044;-84
2021/05/07 13:15:21;;;;;;;2.95;2.72;;;10.70;99.90;;;;;;5095781;28;20045;-84
2021/05/07 13:17:56;;;;;;;6.07;2.92;;;10.30;99.90;;;;;;5099112;28;20081;-84
2021/05/07 13:20:25;;;;;;;4.88;3.40;;;10.00;99.90;;;;;;5099028;28;20132;-85
2021/05/07 13:22:52;;;;;;;2.83;2.63;;;9.40;99.90;;;;;;5099166;28;20052;-83